createdAt,value
2023-02-15T00:02:07.509Z,47.46
2023-02-15T00:04:51.167Z,48.35
2023-02-15T00:07:21.265Z,48.74
2023-02-15T00:09:49.767Z,48.04
2023-02-15T00:12:18.769Z,48.71
2023-02-15T00:14:46.854Z,48.81
2023-02-15T00:17:14.901Z,48.06
2023-02-15T00:19:42.895Z,49.36
2023-02-15T00:22:11.210Z,48.88
2023-02-15T00:24:40.518Z,49.80
2023-02-15T00:27:10.216Z,50.08
2023-02-15T00:29:38.563Z,49.56
2023-02-15T00:32:07.152Z,49.48
2023-02-15T00:34:35.150Z,49.81
2023-02-15T00:37:03.598Z,49.90
2023-02-15T00:39:31.601Z,50.14
2023-02-15T00:42:00.987Z,50.20
2023-02-15T00:44:28.999Z,49.93
2023-02-15T00:46:57.066Z,49.66
2023-02-15T00:49:25.093Z,50.07
2023-02-15T00:51:53.044Z,49.37
2023-02-15T00:54:21.138Z,50.02
2023-02-15T00:56:49.075Z,49.93
2023-02-15T00:59:18.509Z,49.43
2023-02-15T01:01:46.508Z,49.23
2023-02-15T01:04:14.598Z,49.58
2023-02-15T01:06:42.645Z,49.23
2023-02-15T01:09:10.657Z,49.67
2023-02-15T01:11:38.692Z,49.22
2023-02-15T01:14:06.695Z,49.42
2023-02-15T01:16:36.061Z,49.64
2023-02-15T01:19:04.807Z,49.51
2023-02-15T01:21:35.419Z,49.65
2023-02-15T01:24:03.595Z,49.34
2023-02-15T01:26:31.644Z,49.57
2023-02-15T01:28:59.590Z,49.60
2023-02-15T01:31:27.802Z,49.92
2023-02-15T01:33:57.277Z,50.00
2023-02-15T01:36:25.273Z,50.40
2023-02-15T01:38:53.230Z,50.32
2023-02-15T01:41:25.035Z,49.72
2023-02-15T01:43:55.466Z,49.40
2023-02-15T01:46:28.432Z,49.81
2023-02-15T01:49:02.273Z,49.60
2023-02-15T01:51:33.701Z,48.76
2023-02-15T01:54:08.029Z,49.37
2023-02-15T01:56:40.156Z,49.24
2023-02-15T01:59:11.369Z,49.24
2023-02-15T02:01:40.238Z,49.00
2023-02-15T02:04:17.286Z,48.98
2023-02-15T02:06:48.753Z,47.81
2023-02-15T02:09:17.084Z,47.82
2023-02-15T02:11:48.625Z,48.64
2023-02-15T02:14:17.701Z,48.66
2023-02-15T02:16:55.029Z,48.66
2023-02-15T02:19:48.527Z,48.20
2023-02-15T02:22:50.372Z,48.05
2023-02-15T02:25:45.811Z,48.82
2023-02-15T02:28:36.802Z,48.76
2023-02-15T02:31:33.679Z,48.76
2023-02-15T02:34:09.907Z,49.61
2023-02-15T02:36:46.833Z,49.66
2023-02-15T02:39:26.266Z,50.26
2023-02-15T02:42:03.729Z,50.34
2023-02-15T02:44:37.714Z,49.99
2023-02-15T02:47:12.895Z,50.28
2023-02-15T02:49:44.476Z,50.20
2023-02-15T02:52:37.872Z,50.27
2023-02-15T02:55:09.751Z,50.26
2023-02-15T02:57:43.538Z,49.69
2023-02-15T03:00:13.441Z,49.75
2023-02-15T03:02:45.472Z,49.76
2023-02-15T03:05:19.184Z,50.40
2023-02-15T03:07:52.159Z,50.28
2023-02-15T03:10:23.201Z,50.06
2023-02-15T03:12:52.698Z,50.27
2023-02-15T03:15:23.376Z,50.24
2023-02-15T03:17:56.465Z,51.22
2023-02-15T03:20:30.720Z,51.52
2023-02-15T09:11:14.615Z,52.85
2023-02-15T09:13:42.660Z,52.72
2023-02-15T09:16:11.740Z,52.63
2023-02-15T09:18:41.471Z,52.65
2023-02-15T09:21:11.105Z,52.37
2023-02-15T09:23:39.325Z,52.22
2023-02-15T09:26:09.601Z,51.91
2023-02-15T09:28:39.362Z,51.76
2023-02-15T09:31:12.731Z,52.31
2023-02-15T09:33:42.414Z,51.54
2023-02-15T09:36:18.506Z,51.51
2023-02-15T09:38:47.397Z,51.54
2023-02-15T09:41:36.486Z,51.59
2023-02-15T09:44:16.030Z,51.87
2023-02-15T09:47:00.520Z,51.48
2023-02-15T09:49:39.096Z,50.99
2023-02-15T09:52:34.921Z,50.89
2023-02-15T09:55:14.226Z,50.52
2023-02-15T09:57:53.053Z,50.04
2023-02-15T10:00:33.052Z,50.29
2023-02-15T10:03:20.889Z,49.58
2023-02-15T10:06:02.527Z,50.52
2023-02-15T10:08:55.817Z,49.47
2023-02-15T10:11:41.872Z,50.38
2023-02-15T10:14:22.832Z,50.10
2023-02-15T10:17:03.360Z,49.19
2023-02-15T10:19:42.669Z,50.20
2023-02-15T10:22:24.119Z,49.79
2023-02-15T10:25:13.093Z,49.27
2023-02-15T10:27:47.995Z,49.44
2023-02-15T10:30:18.098Z,49.82
2023-02-15T10:33:01.154Z,48.95
2023-02-15T10:35:42.663Z,49.44
2023-02-15T10:38:27.236Z,47.10
2023-02-15T10:41:05.734Z,45.76
2023-02-15T10:44:10.392Z,43.88
2023-02-15T10:46:56.200Z,43.54
2023-02-15T10:49:39.400Z,41.81
2023-02-15T10:52:24.432Z,41.56
2023-02-15T10:55:04.810Z,41.01
2023-02-15T10:57:43.834Z,40.51
2023-02-15T11:00:18.990Z,39.91
2023-02-15T11:03:07.934Z,38.16
2023-02-15T11:05:46.511Z,38.24
2023-02-15T11:08:15.160Z,38.16
2023-02-15T11:10:49.111Z,37.17
2023-02-15T11:13:19.950Z,36.63
2023-02-15T11:15:53.298Z,36.42
2023-02-15T11:18:27.543Z,36.38
2023-02-15T11:21:02.138Z,36.02
2023-02-15T11:23:31.217Z,36.12
2023-02-15T11:26:01.987Z,35.87
2023-02-15T11:28:34.354Z,35.37
2023-02-15T11:31:14.035Z,35.41
2023-02-15T11:33:46.985Z,35.15
2023-02-15T11:36:20.600Z,35.08
2023-02-15T11:38:53.167Z,34.89
2023-02-15T11:41:25.341Z,35.03
2023-02-15T11:43:59.445Z,34.46
2023-02-15T11:46:27.662Z,34.61
2023-02-15T11:48:55.812Z,34.68
2023-02-15T11:51:25.473Z,34.91
2023-02-15T11:53:54.734Z,34.79
2023-02-15T11:56:25.161Z,34.92
2023-02-15T11:58:58.175Z,34.73
2023-02-15T12:01:33.249Z,34.82
2023-02-15T12:04:06.452Z,34.20
2023-02-15T12:06:41.329Z,34.37
2023-02-15T12:09:23.159Z,34.22
2023-02-15T12:11:51.815Z,34.34
2023-02-15T12:14:19.815Z,34.58
2023-02-15T12:16:51.157Z,34.03
2023-02-15T12:19:32.641Z,34.42
2023-02-15T12:22:04.452Z,34.58
2023-02-15T12:24:35.455Z,35.11
2023-02-15T12:27:06.078Z,34.94
2023-02-15T12:29:42.103Z,34.59
2023-02-15T12:32:19.280Z,34.22
2023-02-15T12:34:48.930Z,34.12
2023-02-15T12:37:25.336Z,33.91
2023-02-15T12:39:56.213Z,33.95
2023-02-15T12:42:25.518Z,34.01
2023-02-15T12:45:00.225Z,33.53
2023-02-15T12:47:29.726Z,33.49
2023-02-15T12:50:20.303Z,33.67
2023-02-15T12:52:51.457Z,33.93
2023-02-15T12:55:26.515Z,33.76
2023-02-15T12:58:17.141Z,33.36
2023-02-15T13:00:45.399Z,33.58
2023-02-15T13:03:20.468Z,33.74
2023-02-15T13:05:53.181Z,34.03
2023-02-15T13:08:28.165Z,33.68
2023-02-15T13:10:58.882Z,34.22
2023-02-15T13:13:30.534Z,33.41
2023-02-15T13:16:02.074Z,33.43
2023-02-15T13:18:34.256Z,33.40
2023-02-15T13:21:12.399Z,33.64
2023-02-15T13:23:47.029Z,33.43
2023-02-15T13:26:21.491Z,33.46
2023-02-15T13:28:54.276Z,33.62
2023-02-15T13:31:26.141Z,33.24
2023-02-15T13:33:59.253Z,33.38
2023-02-15T13:36:34.089Z,33.66
2023-02-15T13:39:15.801Z,33.81
2023-02-15T13:41:55.538Z,33.56
2023-02-15T13:44:45.307Z,33.57
2023-02-15T13:47:24.631Z,33.50
2023-02-15T13:50:05.224Z,33.19
2023-02-15T13:52:42.935Z,33.36
2023-02-15T13:55:29.166Z,33.13
2023-02-15T13:58:18.046Z,33.29
2023-02-15T14:00:54.209Z,33.13
2023-02-15T14:03:54.756Z,33.26
2023-02-15T14:06:45.807Z,33.52
2023-02-15T14:09:27.591Z,33.27
2023-02-15T14:12:23.626Z,33.67
2023-02-15T14:15:14.434Z,33.80
2023-02-15T14:17:52.682Z,33.82
2023-02-15T14:20:27.068Z,34.13
2023-02-15T14:23:07.128Z,34.14
2023-02-15T14:25:41.462Z,33.96
2023-02-15T14:28:17.166Z,34.02
2023-02-15T14:30:49.248Z,34.21
2023-02-15T14:33:35.226Z,34.06
2023-02-15T14:36:07.660Z,34.41
2023-02-15T14:39:02.193Z,34.59
2023-02-15T14:41:39.043Z,34.71
2023-02-15T14:44:15.572Z,35.45
2023-02-15T14:46:52.220Z,35.48
2023-02-15T14:49:25.192Z,35.66
2023-02-15T14:51:59.981Z,35.41
2023-02-15T14:55:02.267Z,35.44
2023-02-15T14:57:35.825Z,34.99
2023-02-15T15:00:23.250Z,35.61
2023-02-15T15:02:55.577Z,35.29
2023-02-15T15:05:35.543Z,35.68
2023-02-15T15:08:05.483Z,35.94
2023-02-15T15:10:43.654Z,35.75
2023-02-15T15:13:40.458Z,36.07
2023-02-15T15:16:30.919Z,36.07
2023-02-15T15:18:59.908Z,36.27
2023-02-15T15:21:59.060Z,36.59
2023-02-15T15:24:53.320Z,36.30
2023-02-15T15:27:41.062Z,36.28
2023-02-15T15:30:47.764Z,36.32
2023-02-15T15:33:31.965Z,36.21
2023-02-15T15:36:21.309Z,36.71
2023-02-15T15:39:02.175Z,35.68
2023-02-15T15:41:44.453Z,36.12
2023-02-15T15:47:23.713Z,36.26
2023-02-15T15:49:58.423Z,35.97
2023-02-15T15:52:28.642Z,35.84
2023-02-15T15:55:00.141Z,36.45
2023-02-15T15:57:32.345Z,36.25
2023-02-15T16:00:01.259Z,36.12
2023-02-15T16:02:30.110Z,35.69
2023-02-15T16:05:09.254Z,36.11
2023-02-15T16:07:38.906Z,36.00
2023-02-15T16:10:21.572Z,36.58
2023-02-15T16:12:51.685Z,36.12
2023-02-15T16:15:22.820Z,36.21
2023-02-15T16:17:56.034Z,36.17
2023-02-15T16:20:27.944Z,35.84
2023-02-15T16:23:07.566Z,35.88
2023-02-15T16:25:44.870Z,36.16
2023-02-15T16:28:14.776Z,36.38
2023-02-15T16:30:45.514Z,36.04
2023-02-15T16:33:15.800Z,36.44
2023-02-15T16:35:57.275Z,36.93
2023-02-15T16:38:47.192Z,36.79
2023-02-15T16:41:17.360Z,37.02
2023-02-15T16:43:49.941Z,36.42
2023-02-15T16:46:21.937Z,36.28
2023-02-15T16:48:53.849Z,36.84
2023-02-15T16:51:28.459Z,37.17
2023-02-15T16:53:58.803Z,37.12
2023-02-15T16:56:28.726Z,36.70
2023-02-15T16:58:58.878Z,37.06
2023-02-15T17:01:29.767Z,37.13
2023-02-15T17:04:14.367Z,37.74
2023-02-15T17:06:59.283Z,36.93
2023-02-15T17:09:27.617Z,37.37
2023-02-15T17:11:56.041Z,38.16
2023-02-15T17:14:29.705Z,38.16
2023-02-15T17:17:03.542Z,38.34
2023-02-15T17:19:34.206Z,38.50
2023-02-15T17:22:07.705Z,38.43
2023-02-15T17:24:39.319Z,37.65
2023-02-15T17:27:14.385Z,38.28
2023-02-15T17:29:46.382Z,37.92
2023-02-15T17:32:20.033Z,38.68
2023-02-15T17:35:00.232Z,38.02
2023-02-15T17:37:33.574Z,38.43
2023-02-15T17:40:03.302Z,38.60
2023-02-15T17:42:31.300Z,38.95
2023-02-15T17:44:59.532Z,39.08
2023-02-15T17:47:30.231Z,38.95
2023-02-15T17:49:58.397Z,38.55
2023-02-15T17:52:31.635Z,39.06
2023-02-15T17:55:17.058Z,38.83
2023-02-15T17:57:47.635Z,39.17
2023-02-15T18:00:34.176Z,38.70
2023-02-15T18:03:19.565Z,39.04
2023-02-15T18:06:04.886Z,38.44
2023-02-15T18:08:51.928Z,39.04
2023-02-15T18:11:36.983Z,39.13
2023-02-15T18:14:06.063Z,39.07
2023-02-15T18:16:37.000Z,39.55
2023-02-15T18:19:06.501Z,38.91
2023-02-15T18:21:35.085Z,39.52
2023-02-15T18:24:04.720Z,39.69
2023-02-15T18:26:32.707Z,39.52
2023-02-15T18:29:00.821Z,39.88
2023-02-15T18:31:29.310Z,40.23
2023-02-15T18:34:00.979Z,39.50
2023-02-15T18:36:32.905Z,40.16
2023-02-15T18:39:08.504Z,40.23
2023-02-15T18:41:38.656Z,40.07
2023-02-15T18:44:12.845Z,40.58
2023-02-15T18:46:40.897Z,39.84
2023-02-15T18:49:08.890Z,40.18
2023-02-15T18:51:40.278Z,40.19
2023-02-15T18:54:18.205Z,39.70
2023-02-15T18:56:52.753Z,39.87
2023-02-15T18:59:21.501Z,39.78
2023-02-15T19:01:49.634Z,40.18
2023-02-15T19:04:18.443Z,39.72
2023-02-15T19:06:49.086Z,39.87
2023-02-15T19:09:21.023Z,40.16
2023-02-15T19:11:53.834Z,41.04
2023-02-15T19:14:30.270Z,41.00
2023-02-15T19:17:00.185Z,41.01
2023-02-15T19:19:29.111Z,40.59
2023-02-15T19:21:57.659Z,41.22
2023-02-15T19:24:34.236Z,41.15
2023-02-15T19:27:04.473Z,41.37
2023-02-15T19:29:32.854Z,41.02
2023-02-15T19:32:01.073Z,41.21
2023-02-15T19:34:29.378Z,41.80
2023-02-15T19:36:58.005Z,41.37
2023-02-15T19:39:29.025Z,41.05
2023-02-15T19:41:57.624Z,41.67
2023-02-15T19:44:26.999Z,41.80
2023-02-15T19:46:55.406Z,42.25
2023-02-15T19:49:23.591Z,42.71
2023-02-15T19:51:51.974Z,42.65
2023-02-15T19:54:29.077Z,43.23
2023-02-15T19:56:57.568Z,43.28
2023-02-15T19:59:29.189Z,43.36
2023-02-15T20:01:58.200Z,43.27
2023-02-15T20:04:27.128Z,43.00
2023-02-15T20:06:58.394Z,43.19
2023-02-15T20:09:30.311Z,43.20
2023-02-15T20:11:58.495Z,43.11
2023-02-15T20:14:28.470Z,42.37
2023-02-15T20:16:56.518Z,42.96
2023-02-15T20:19:24.578Z,43.36
2023-02-15T20:21:55.078Z,43.56
2023-02-15T20:24:25.848Z,43.79
2023-02-15T20:26:54.075Z,43.71
2023-02-15T20:29:22.155Z,43.60
2023-02-15T20:31:55.211Z,43.37
2023-02-15T20:34:23.479Z,43.71
2023-02-15T20:36:52.653Z,43.34
2023-02-15T20:39:21.062Z,43.84
2023-02-15T20:41:49.094Z,43.06
2023-02-15T20:44:23.456Z,43.31
2023-02-15T20:46:55.480Z,43.70
2023-02-15T20:49:25.339Z,43.96
2023-02-15T20:51:55.326Z,43.89
2023-02-15T20:54:25.256Z,44.18
2023-02-15T20:56:54.346Z,44.00
2023-02-15T20:59:25.696Z,43.58
2023-02-15T21:01:58.749Z,44.53
2023-02-15T21:04:31.597Z,44.26
2023-02-15T21:07:00.124Z,44.39
2023-02-15T21:09:28.335Z,44.50
2023-02-15T21:11:58.205Z,43.79
2023-02-15T21:14:29.630Z,44.06
2023-02-15T21:16:59.214Z,44.25
2023-02-15T21:19:27.236Z,44.32
2023-02-15T21:21:55.581Z,44.51
2023-02-15T21:24:26.019Z,44.55
2023-02-15T21:26:55.717Z,44.57
2023-02-15T21:29:26.279Z,45.20
2023-02-15T21:31:54.570Z,45.11
2023-02-15T21:34:24.434Z,45.72
2023-02-15T21:36:52.704Z,46.45
2023-02-15T21:39:23.894Z,46.35
2023-02-15T21:42:11.360Z,45.92
2023-02-15T21:44:56.689Z,46.31
2023-02-15T21:47:44.410Z,45.64
2023-02-15T21:50:32.811Z,45.48
2023-02-15T21:53:01.814Z,45.51
2023-02-15T21:55:31.293Z,46.06
2023-02-15T21:57:59.359Z,46.01
2023-02-15T22:00:28.705Z,45.26
2023-02-15T22:02:59.427Z,45.01
2023-02-15T22:05:30.414Z,45.45
2023-02-15T22:07:58.579Z,45.95
2023-02-15T22:10:30.127Z,45.55
2023-02-15T22:12:58.645Z,45.68
2023-02-15T22:15:30.219Z,45.72
2023-02-15T22:17:58.340Z,45.36
2023-02-15T22:20:28.304Z,45.48
2023-02-15T22:22:56.432Z,46.17
2023-02-15T22:25:26.186Z,46.54
2023-02-15T22:27:55.328Z,46.17
2023-02-15T22:30:27.419Z,46.42
2023-02-15T22:32:55.962Z,47.44
2023-02-15T22:35:26.732Z,46.57
2023-02-15T22:37:56.495Z,46.62
2023-02-15T22:40:30.223Z,46.61
2023-02-15T22:43:01.043Z,46.75
2023-02-15T22:45:29.637Z,46.06
2023-02-15T22:47:59.703Z,46.81
2023-02-15T22:50:29.729Z,47.15
2023-02-15T22:53:01.286Z,46.98
2023-02-15T22:55:33.450Z,46.41
2023-02-15T22:58:02.079Z,47.25
2023-02-15T23:00:33.750Z,45.70
2023-02-15T23:03:02.416Z,46.24
2023-02-15T23:05:32.231Z,46.56
2023-02-15T23:08:01.579Z,46.52
2023-02-15T23:10:30.143Z,47.03
2023-02-15T23:13:17.936Z,46.95
2023-02-15T23:15:48.849Z,47.00
2023-02-15T23:18:19.677Z,46.97
2023-02-15T23:20:49.952Z,47.09
2023-02-15T23:23:23.706Z,47.22
2023-02-15T23:25:51.663Z,47.78
2023-02-15T23:28:23.341Z,46.94
2023-02-15T23:30:51.945Z,47.00
2023-02-15T23:33:22.867Z,47.25
2023-02-15T23:35:51.125Z,47.05
2023-02-15T23:38:23.051Z,47.41
2023-02-15T23:41:12.373Z,47.34
2023-02-15T23:43:42.910Z,46.89
2023-02-15T23:46:23.892Z,46.87
2023-02-15T23:48:53.009Z,46.07
2023-02-15T23:51:21.954Z,45.61
2023-02-15T23:53:51.373Z,46.40
2023-02-15T23:56:19.679Z,46.90
2023-02-15T23:58:48.592Z,46.72
